Bookmark and Share
Track history (hours):
 

M.t.jag Leela

Last reported at 2013-Jul-16 13:33 UTC. Time now 2014-Apr-21 12:13 UTC.
Position N 01°14' E 103°29'.
Warning: this ship's position is months out of date.

Length 243 m; draft 8.4 m.

Type: Tanker. MMSI: 419232000.

NotesDate/timePositionNaut miles runAvg speedWind from/ knotsBaromVisibWave heightAir tempDewpointWater temp
2013-Jul-16 13:33N 01°14' E 103°29'1312.8
2013-Jul-16 12:33N 01°10' E 103°41'1110.6
2013-Jul-16 11:33N 01°12' E 103°51'  
2013-Jul-14 05:28N 01°13' E 103°56'3 0.3
2013-Jul-13 18:22N 01°16' E 103°55'0 0.0
2013-Jul-13 09:28N 01°16' E 103°55'0 0.0
2013-Jul-13 07:28N 01°16' E 103°55'0 0.0
2013-Jul-12 22:27N 01°16' E 103°55'0 0.0
2013-Jul-12 19:21N 01°16' E 103°55'0 0.1
2013-Jul-12 15:15N 01°16' E 103°54'0 0.0
2013-Jul-12 04:27N 01°16' E 103°55'0 0.0
2013-Jul-11 20:27N 01°16' E 103°54'0 0.1
2013-Jul-11 15:33N 01°16' E 103°54'0 0.0
2013-Jul-11 03:14N 01°16' E 103°54'0 0.0
2013-Jul-10 23:26N 01°16' E 103°54'0 0.1
2013-Jul-10 22:14N 01°16' E 103°54'0 0.0
2013-Jul-10 20:26N 01°16' E 103°54'0 0.0
2013-Jul-10 19:20N 01°16' E 103°54'0 0.0
2013-Jul-10 18:32N 01°16' E 103°54'0 0.1
2013-Jul-10 17:20N 01°16' E 103°54'0 0.2
2013-Jul-10 16:29N 01°16' E 103°54'0 0.2
2013-Jul-10 15:28N 01°16' E 103°54'3 3.7
2013-Jul-10 14:33N 01°13' E 103°52'7 6.9
2013-Jul-10 13:33N 01°15' E 103°46'3 3.4
2013-Jul-10 12:33N 01°18' E 103°43'0 0.0
2013-Jul-10 11:28N 01°18' E 103°43'0 0.0
2013-Jul-10 10:28N 01°18' E 103°43'0 0.0
2013-Jul-10 09:28N 01°18' E 103°43'0 0.0
2013-Jul-10 08:28N 01°18' E 103°43'0 0.0
2013-Jul-10 07:28N 01°18' E 103°43'0 0.0
2013-Jul-10 06:28N 01°18' E 103°43'0 0.0
2013-Jul-10 05:16N 01°18' E 103°43'0 0.0
2013-Jul-10 04:22N 01°18' E 103°43'0 0.0
2013-Jul-10 03:28N 01°18' E 103°43'0 0.0
2013-Jul-10 02:28N 01°18' E 103°43'0 0.0
2013-Jul-10 01:28N 01°18' E 103°43'0 0.0
2013-Jul-10 00:28N 01°18' E 103°43'0 0.0
2013-Jul-09 23:28N 01°18' E 103°43'0 0.0
2013-Jul-09 22:28N 01°18' E 103°43'0 0.0
2013-Jul-09 21:28N 01°18' E 103°43'0 0.0
2013-Jul-09 20:28N 01°18' E 103°43'0 0.0
2013-Jul-09 19:28N 01°18' E 103°43'0 0.0
2013-Jul-09 18:28N 01°18' E 103°43'0 0.0
2013-Jul-09 17:22N 01°18' E 103°43'0 0.0
2013-Jul-09 16:28N 01°18' E 103°43'0 0.0
2013-Jul-09 15:28N 01°18' E 103°43'0 0.0
2013-Jul-09 14:28N 01°18' E 103°43'0 0.0
2013-Jul-09 13:28N 01°18' E 103°43'0 0.0
2013-Jul-09 12:22N 01°18' E 103°43'0 0.0
2013-Jul-09 11:28N 01°18' E 103°43'0 0.0
2013-Jul-09 10:28N 01°18' E 103°43'0 0.0
2013-Jul-09 09:28N 01°18' E 103°43'0 0.0
2013-Jul-09 08:22N 01°18' E 103°43'0 0.0
2013-Jul-09 07:28N 01°18' E 103°43'0 0.0
2013-Jul-09 06:28N 01°18' E 103°43'0 0.0
2013-Jul-09 05:22N 01°18' E 103°43'0 0.0
2013-Jul-09 04:34N 01°18' E 103°43'0 0.0
2013-Jul-09 03:34N 01°18' E 103°43'0 0.0
2013-Jul-09 02:33N 01°18' E 103°43'0 0.0
2013-Jul-09 01:33N 01°18' E 103°43'0 0.0
2013-Jul-09 00:27N 01°18' E 103°43'0 0.0
2013-Jul-08 23:33N 01°18' E 103°43'0 0.0
2013-Jul-08 22:33N 01°18' E 103°43'0 0.0
2013-Jul-08 21:33N 01°18' E 103°43'0 0.0
2013-Jul-08 20:33N 01°18' E 103°43'0 0.0
2013-Jul-08 19:33N 01°18' E 103°43'0 0.0
2013-Jul-08 18:33N 01°18' E 103°43'0 0.0
2013-Jul-08 17:33N 01°18' E 103°43'0 0.0
2013-Jul-08 16:33N 01°18' E 103°43'0 0.0
2013-Jul-08 15:33N 01°18' E 103°43'0 0.0
2013-Jul-08 14:33N 01°18' E 103°43'0 0.0
2013-Jul-08 13:33N 01°18' E 103°43'0 0.0
2013-Jul-08 12:33N 01°18' E 103°43'0 0.0
2013-Jul-08 11:27N 01°18' E 103°43'0 0.0
2013-Jul-08 10:33N 01°18' E 103°43'0 0.0
2013-Jul-08 09:33N 01°18' E 103°43'0 0.0
2013-Jul-08 08:33N 01°18' E 103°43'0 0.0
2013-Jul-08 07:27N 01°18' E 103°43'0 0.0
2013-Jul-08 06:33N 01°18' E 103°43'0 0.0
2013-Jul-08 05:33N 01°18' E 103°43'0 0.0
2013-Jul-08 04:33N 01°18' E 103°43'0 0.0
2013-Jul-08 03:33N 01°18' E 103°43'0 0.0
2013-Jul-08 02:33N 01°18' E 103°43'0 0.0
2013-Jul-08 01:33N 01°18' E 103°43'0 0.0
2013-Jul-08 00:33N 01°18' E 103°43'4 3.8
2013-Jul-07 23:33N 01°15' E 103°46'6 6.5
2013-Jul-07 22:33N 01°11' E 103°41'1 1.0
2013-Jul-07 21:32N 01°11' E 103°42'0 0.0
2013-Jul-07 20:32N 01°11' E 103°42'0 0.1
2013-Jul-07 19:26N 01°11' E 103°42'0 0.0
2013-Jul-07 18:32N 01°11' E 103°42'0 0.1
2013-Jul-07 17:32N 01°11' E 103°42'0 0.0
2013-Jul-07 16:32N 01°11' E 103°42'0 0.1
2013-Jul-07 15:32N 01°11' E 103°42'0 0.1
2013-Jul-07 14:32N 01°11' E 103°42'0 0.1
2013-Jul-07 13:32N 01°11' E 103°42'1 0.9
2013-Jul-07 12:33N 01°11' E 103°41'5 5.0
2013-Jul-07 11:33N 01°15' E 103°44'2 1.6
2013-Jul-07 10:29N 01°17' E 103°44'0 0.0
2013-Jul-07 09:29N 01°17' E 103°44'0 0.0
2013-Jul-07 08:29N 01°17' E 103°44'0 0.0
2013-Jul-07 07:29N 01°17' E 103°44'0 0.0
2013-Jul-07 06:23N 01°17' E 103°44'0 0.0
2013-Jul-07 05:29N 01°17' E 103°44'0 0.0
2013-Jul-07 04:29N 01°17' E 103°44'0 0.0
2013-Jul-07 03:23N 01°17' E 103°44'0 0.0
2013-Jul-07 02:29N 01°17' E 103°44'0 0.0
2013-Jul-07 01:29N 01°17' E 103°44'0 0.0
2013-Jul-07 00:29N 01°17' E 103°44'0 0.0
2013-Jul-06 23:29N 01°17' E 103°44'0 0.0
2013-Jul-06 21:23N 01°17' E 103°44'0 0.0
2013-Jul-06 20:29N 01°17' E 103°44'0 0.0
2013-Jul-06 19:23N 01°17' E 103°44'0 0.0
2013-Jul-06 18:29N 01°17' E 103°44'0 0.0
2013-Jul-06 17:28N 01°17' E 103°44'0 0.0
2013-Jul-06 16:29N 01°17' E 103°44'0 0.0
2013-Jul-06 15:28N 01°17' E 103°44'0 0.0
2013-Jul-06 14:28N 01°17' E 103°44'  

Dump ship's entire track history

sailing weather and tide predictions

M.t.jag Leela — VVKO — position and weather